Time;durP1;ratioP1;P1;durP2;ratioP2;P2;SDS_P1;SDS_P2;PMS_P1;PMS_P2;Temp;Humidity;BMP_temperature;BMP_pressure;BME280_temperature;BME280_humidity;BME280_pressure;Samples;Min_cycle;Max_cycle;Signal;HPM_P1;HPM_P2
2022/05/01 00:00:54;;;;;;;11.82;7.40;;;;;;;15.26;48.72;101711.72;5151083;27;20415;-60
2022/05/01 00:03:31;;;;;;;8.43;6.65;;;;;;;15.20;48.71;101705.25;5148035;27;20809;-59
2022/05/01 00:05:59;;;;;;;8.10;5.78;;;;;;;15.17;49.02;101712.78;5156431;27;20413;-58
2022/05/01 00:08:28;;;;;;;5.97;5.00;;;;;;;15.12;48.98;101717.81;5166086;27;20861;-61
2022/05/01 00:10:55;;;;;;;5.07;4.50;;;;;;;15.09;49.13;101714.47;5148529;27;20954;-59
2022/05/01 00:13:22;;;;;;;5.32;4.30;;;;;;;15.06;49.10;101720.16;5150114;27;20417;-60
2022/05/01 00:15:50;;;;;;;6.35;4.30;;;;;;;14.98;49.49;101714.88;5164645;27;20411;-60
2022/05/01 00:18:18;;;;;;;5.20;4.20;;;;;;;14.95;49.25;101719.75;5155431;27;20906;-60
2022/05/01 00:20:45;;;;;;;6.75;4.55;;;;;;;14.91;49.47;101716.59;5150861;27;20449;-60
2022/05/01 00:23:19;;;;;;;4.88;4.38;;;;;;;14.85;49.74;101723.44;5092389;27;2108791;-60
2022/05/01 00:26:07;;;;;;;5.28;4.63;;;;;;;14.79;49.58;101726.81;5095168;27;20410;-60
2022/05/01 00:28:36;;;;;;;4.70;4.28;;;;;;;14.81;49.65;101729.31;5085066;28;20839;-61
2022/05/01 00:31:05;;;;;;;5.18;4.20;;;;;;;14.76;49.56;101720.97;5085565;28;20457;-60
2022/05/01 00:36:28;;;;;;;5.22;4.45;;;;;;;14.68;50.19;101725.34;5021221;28;20901;-60
2022/05/01 00:38:55;;;;;;;5.10;4.05;;;;;;;14.63;49.78;101727.69;5057933;28;20424;-60
2022/05/01 00:41:26;;;;;;;5.55;4.07;;;;;;;14.58;50.27;101723.88;5067617;28;20428;-59
2022/05/01 00:44:05;;;;;;;5.28;4.35;;;;;;;14.57;50.02;101724.84;5081189;28;20414;-60
2022/05/01 00:48:43;;;;;;;5.15;3.95;;;;;;;14.51;50.23;101726.34;5069493;28;20411;-61
2022/05/01 00:51:10;;;;;;;5.75;4.38;;;;;;;14.49;49.97;101723.84;5067368;28;20477;-60
2022/05/01 00:53:37;;;;;;;5.80;4.80;;;;;;;14.44;50.00;101730.72;5064627;28;20436;-60
2022/05/01 00:56:04;;;;;;;5.75;4.70;;;;;;;14.40;49.72;101726.72;5066527;28;20824;-60
2022/05/01 00:58:32;;;;;;;5.85;4.30;;;;;;;14.33;50.08;101734.56;5064760;28;20485;-58
2022/05/01 01:01:00;;;;;;;6.97;4.65;;;;;;;14.28;50.51;101726.25;5062685;28;20940;-59
2022/05/01 01:03:27;;;;;;;7.50;4.37;;;;;;;14.25;50.29;101719.41;5064183;28;20448;-60
2022/05/01 01:05:56;;;;;;;6.28;4.35;;;;;;;14.29;50.08;101728.72;5051538;28;20417;-62
2022/05/01 01:08:40;;;;;;;6.03;4.57;;;;;;;14.28;49.73;101728.94;5069518;28;20462;-59
2022/05/01 01:11:07;;;;;;;8.88;4.55;;;;;;;14.24;49.52;101719.59;5056227;28;20839;-59
2022/05/01 01:13:34;;;;;;;6.30;4.68;;;;;;;14.23;49.36;101713.41;5065872;28;20427;-60
2022/05/01 01:16:02;;;;;;;7.28;4.40;;;;;;;14.25;49.43;101724.75;5068551;28;20429;-60
2022/05/01 01:18:29;;;;;;;7.77;4.30;;;;;;;14.21;49.61;101717.28;5052981;28;20569;-60
2022/05/01 01:20:57;;;;;;;6.50;4.10;;;;;;;14.20;50.05;101720.94;5065025;28;20416;-59
2022/05/01 01:23:24;;;;;;;6.90;4.40;;;;;;;14.12;49.80;101713.78;5063866;28;20443;-59
2022/05/01 01:25:52;;;;;;;5.83;4.87;;;;;;;14.10;49.81;101715.78;5065884;28;20415;-60
2022/05/01 01:28:20;;;;;;;6.00;4.30;;;;;;;14.07;50.09;101716.13;5064407;28;20523;-60
2022/05/01 01:33:31;;;;;;;8.45;4.65;;;;;;;13.98;50.19;101707.28;5064293;28;20418;-58
2022/05/01 01:36:03;;;;;;;8.55;4.45;;;;;;;13.92;49.98;101706.13;5064356;28;20420;-60
2022/05/01 01:38:31;;;;;;;7.18;4.40;;;;;;;13.93;50.00;101710.44;5067395;28;20918;-60
2022/05/01 01:41:56;;;;;;;7.00;4.40;;;;;;;13.92;49.77;101705.31;5066781;28;20531;-60
2022/05/01 01:44:25;;;;;;;8.65;4.78;;;;;;;13.90;49.60;101704.63;5062591;28;20481;-60
2022/05/01 01:46:52;;;;;;;5.77;4.60;;;;;;;13.89;49.60;101700.31;5064305;28;20432;-60
2022/05/01 01:52:04;;;;;;;5.97;4.88;;;;;;;13.74;49.96;101698.31;5061840;28;21059;-60
2022/05/01 01:56:59;;;;;;;6.47;4.40;;;;;;;13.72;50.01;101696.78;5085382;27;20407;-60
2022/05/01 01:59:26;;;;;;;6.05;5.15;;;;;;;13.63;50.91;101701.31;5063256;28;20459;-60
2022/05/01 02:01:53;;;;;;;6.75;5.20;;;;;;;13.64;50.98;101691.47;5066072;28;20972;-60
2022/05/01 02:04:20;;;;;;;8.60;5.95;;;;;;;13.52;51.45;101688.28;5064741;28;20432;-60
2022/05/01 02:06:47;;;;;;;7.40;5.18;;;;;;;13.53;51.47;101690.78;5064905;28;20518;-60
2022/05/01 02:09:15;;;;;;;6.93;5.22;;;;;;;13.56;51.15;101685.16;5065273;28;20428;-60
2022/05/01 02:13:30;;;;;;;7.20;5.83;;;;;;;13.52;52.00;101689.16;5076046;28;20470;-60
2022/05/01 02:15:57;;;;;;;7.13;5.60;;;;;;;13.53;51.68;101682.81;5066135;28;20423;-59
2022/05/01 02:18:25;;;;;;;5.70;5.10;;;;;;;13.56;50.92;101681.66;5068482;28;20420;-61
2022/05/01 02:23:36;;;;;;;7.97;6.68;;;;;;;13.32;53.61;101688.59;5064730;28;20989;-60
2022/05/01 02:26:03;;;;;;;8.00;6.75;;;;;;;13.34;53.44;101683.97;5064551;28;20428;-60
2022/05/01 02:28:32;;;;;;;7.50;6.70;;;;;;;13.42;53.32;101679.66;5068782;28;20495;-60
2022/05/01 02:30:59;;;;;;;7.50;6.57;;;;;;;13.42;53.44;101677.00;5062250;28;20514;-61
2022/05/01 02:33:26;;;;;;;8.00;6.90;;;;;;;13.46;53.30;101681.81;5069576;28;20473;-60
2022/05/01 02:35:53;;;;;;;9.27;7.30;;;;;;;13.48;53.68;101682.47;5065618;28;20424;-60
2022/05/01 02:38:20;;;;;;;8.30;7.03;;;;;;;13.53;52.86;101687.31;5065178;28;20435;-61
2022/05/01 02:40:47;;;;;;;7.65;6.85;;;;;;;13.51;53.17;101683.97;5064487;28;20431;-60
2022/05/01 02:43:14;;;;;;;8.52;6.43;;;;;;;13.55;52.67;101677.31;5049854;28;20451;-60
2022/05/01 02:45:42;;;;;;;8.40;6.25;;;;;;;13.56;52.08;101677.16;5067459;28;20451;-60
2022/05/01 02:48:09;;;;;;;7.85;6.18;;;;;;;13.56;51.93;101671.00;5068414;28;20430;-60
2022/05/01 02:50:36;;;;;;;12.73;8.55;;;;;;;13.55;52.28;101672.00;5064850;28;20853;-59
2022/05/01 02:53:04;;;;;;;9.77;6.78;;;;;;;13.56;52.09;101674.50;5063694;28;20811;-59
2022/05/01 02:55:32;;;;;;;10.55;7.45;;;;;;;13.58;52.55;101685.00;5067544;28;20424;-60
2022/05/01 02:57:59;;;;;;;10.43;7.80;;;;;;;13.56;52.46;101681.66;5065436;28;20507;-61
2022/05/01 03:00:26;;;;;;;11.60;8.57;;;;;;;13.56;52.45;101673.66;5066808;28;20420;-60
2022/05/01 03:02:56;;;;;;;7.30;6.40;;;;;;;13.51;51.13;101682.16;5062916;28;20426;-59
2022/05/01 03:05:25;;;;;;;9.43;6.22;;;;;;;13.41;50.27;101678.78;5063438;28;20420;-59
2022/05/01 03:07:55;;;;;;;11.20;8.83;;;;;;;13.42;50.53;101682.31;5064955;28;20507;-59
2022/05/01 03:10:23;;;;;;;12.93;9.07;;;;;;;13.40;50.43;101682.47;5065138;28;20412;-59
2022/05/01 03:12:50;;;;;;;9.50;7.03;;;;;;;13.39;50.03;101683.47;5079602;28;20442;-60
2022/05/01 03:15:17;;;;;;;10.67;6.70;;;;;;;13.35;50.13;101687.47;5082594;28;20974;-60
2022/05/01 03:23:14;;;;;;;9.38;5.82;;;;;;;13.19;49.88;101697.03;5079307;28;20422;-59
2022/05/01 03:25:41;;;;;;;8.73;5.53;;;;;;;13.13;50.10;101702.19;5074521;28;20514;-59
2022/05/01 03:28:08;;;;;;;9.13;5.50;;;;;;;13.08;50.24;101708.00;5070000;28;20422;-60
2022/05/01 03:30:36;;;;;;;5.80;4.95;;;;;;;13.04;50.29;101717.31;5070730;28;20426;-59
2022/05/01 03:33:05;;;;;;;6.32;5.32;;;;;;;12.95;50.73;101718.28;5069296;28;20434;-59
2022/05/01 03:35:35;;;;;;;6.68;5.20;;;;;;;12.95;50.87;101728.94;5070901;28;20427;-60
2022/05/01 03:38:03;;;;;;;7.60;5.37;;;;;;;12.90;51.01;101725.91;5070684;28;20542;-60
2022/05/01 03:40:30;;;;;;;7.60;5.90;;;;;;;12.91;50.90;101728.41;5074287;28;20469;-59
2022/05/01 03:42:57;;;;;;;6.20;5.47;;;;;;;12.91;50.86;101738.19;5069311;28;20499;-60
2022/05/01 03:45:24;;;;;;;8.50;5.90;;;;;;;12.90;50.97;101733.88;5070827;28;20438;-61
2022/05/01 03:47:51;;;;;;;7.85;6.35;;;;;;;12.90;50.94;101736.56;5071734;28;20450;-60
2022/05/01 03:50:18;;;;;;;7.88;6.90;;;;;;;12.94;50.83;101730.72;5069796;28;20527;-59
2022/05/01 03:52:47;;;;;;;7.35;6.60;;;;;;;13.00;50.80;101737.28;5070596;28;20431;-59
2022/05/01 03:55:14;;;;;;;7.97;6.72;;;;;;;13.03;50.74;101739.59;5070555;28;20445;-59
2022/05/01 03:57:41;;;;;;;9.45;6.65;;;;;;;13.11;50.61;101736.97;5068674;28;20509;-59
2022/05/01 04:00:10;;;;;;;9.10;6.90;;;;;;;13.20;50.48;101738.66;5068735;28;20450;-59
2022/05/01 04:02:42;;;;;;;9.95;7.32;;;;;;;13.31;50.21;101737.53;5069109;28;20474;-59
2022/05/01 04:05:10;;;;;;;11.93;6.90;;;;;;;13.49;50.23;101734.75;5055691;28;20514;-59
2022/05/01 04:07:37;;;;;;;9.38;6.90;;;;;;;13.55;49.90;101739.41;5057829;28;20509;-59
2022/05/01 04:10:07;;;;;;;7.35;6.25;;;;;;;13.78;49.89;101736.13;5070210;28;20427;-59
2022/05/01 04:12:37;;;;;;;8.50;6.70;;;;;;;14.03;49.28;101733.47;5069998;28;20427;-59
2022/05/01 04:15:07;;;;;;;9.93;6.70;;;;;;;14.16;48.87;101733.78;5069059;28;20510;-60
2022/05/01 04:17:39;;;;;;;9.82;6.97;;;;;;;14.36;48.57;101734.22;5071557;28;20427;-59
2022/05/01 04:20:09;;;;;;;8.93;7.05;;;;;;;14.58;48.57;101734.53;5069859;28;20422;-59
2022/05/01 04:22:40;;;;;;;7.82;6.78;;;;;;;14.77;48.17;101734.16;5069222;28;20509;-60
2022/05/01 04:25:17;;;;;;;9.15;6.88;;;;;;;15.17;47.59;101734.16;5071334;28;20415;-60
2022/05/01 04:27:44;;;;;;;9.32;6.32;;;;;;;15.43;47.27;101729.31;5070412;28;20423;-61
2022/05/01 04:30:13;;;;;;;9.80;6.10;;;;;;;15.67;46.55;101730.97;5071401;28;20419;-59
2022/05/01 04:32:50;;;;;;;8.90;6.10;;;;;;;15.92;46.66;101729.97;5072565;28;20929;-60
2022/05/01 04:35:25;;;;;;;7.57;6.05;;;;;;;16.17;45.70;101726.06;5067821;28;20427;-59
2022/05/01 04:37:54;;;;;;;7.15;6.13;;;;;;;16.49;45.41;101728.59;5069462;28;20413;-59
2022/05/01 04:40:23;;;;;;;10.75;6.10;;;;;;;16.80;44.66;101721.19;5069595;28;20450;-60
2022/05/01 04:42:49;;;;;;;7.72;6.18;;;;;;;17.16;44.17;101738.31;5069827;28;20419;-60
2022/05/01 04:45:17;;;;;;;7.57;5.82;;;;;;;17.55;43.36;101742.47;5068671;28;20504;-60
2022/05/01 04:47:45;;;;;;;6.57;5.80;;;;;;;17.95;42.61;101745.53;5069931;28;20429;-60
2022/05/01 04:50:12;;;;;;;7.90;6.32;;;;;;;18.23;41.50;101737.50;5072873;28;20429;-60
2022/05/01 04:52:40;;;;;;;9.43;6.90;;;;;;;18.57;40.37;101741.22;5069948;28;20518;-61
2022/05/01 04:55:07;;;;;;;9.95;7.47;;;;;;;18.96;39.38;101747.03;5066900;28;20418;-62
2022/05/01 04:57:39;;;;;;;11.20;7.47;;;;;;;19.37;38.79;101738.88;5068937;28;20531;-60
2022/05/01 05:00:08;;;;;;;9.45;6.85;;;;;;;19.49;38.52;101739.94;5069242;28;20419;-60
2022/05/01 05:02:37;;;;;;;6.53;5.93;;;;;;;19.87;39.13;101735.88;5069966;28;20455;-61
2022/05/01 05:05:05;;;;;;;7.07;5.78;;;;;;;20.16;39.02;101740.00;5067568;28;20431;-61
2022/05/01 05:07:32;;;;;;;6.85;6.10;;;;;;;20.43;38.69;101742.66;5069275;28;20437;-60
2022/05/01 05:09:58;;;;;;;6.75;6.07;;;;;;;20.76;38.13;101753.38;5068851;28;20422;-61
2022/05/01 05:14:27;;;;;;;6.95;5.90;;;;;;;20.85;37.90;101748.59;5084181;27;20406;-61
2022/05/01 05:16:54;;;;;;;6.82;6.07;;;;;;;21.06;37.90;101752.03;5068899;28;21010;-61
2022/05/01 05:19:21;;;;;;;9.07;6.30;;;;;;;21.40;36.90;101742.72;5063768;28;20432;-62
2022/05/01 05:21:48;;;;;;;7.60;6.20;;;;;;;22.02;36.03;101742.06;5066210;28;20853;-62
2022/05/01 05:24:15;;;;;;;6.77;6.00;;;;;;;21.82;35.98;101737.66;5075901;28;20423;-61
2022/05/01 05:26:42;;;;;;;6.73;6.03;;;;;;;21.88;35.89;101731.41;5079125;28;20414;-62
2022/05/01 05:29:10;;;;;;;6.72;6.05;;;;;;;21.71;35.83;101741.91;5066017;28;20459;-60
2022/05/01 05:31:38;;;;;;;7.17;6.17;;;;;;;22.14;35.27;101734.91;5060093;28;20423;-61
2022/05/01 05:34:05;;;;;;;6.50;5.90;;;;;;;22.07;35.55;101736.84;5060779;28;20457;-61
2022/05/01 05:36:32;;;;;;;6.80;6.15;;;;;;;22.42;34.81;101730.91;5065112;28;20451;-59
2022/05/01 05:38:59;;;;;;;7.07;6.38;;;;;;;22.12;35.15;101745.91;5052401;28;20788;-59
2022/05/01 05:41:26;;;;;;;6.55;5.95;;;;;;;22.18;35.56;101741.50;5069104;28;20419;-59
2022/05/01 05:43:53;;;;;;;6.90;6.20;;;;;;;22.76;34.72;101740.31;5072117;28;20439;-60
2022/05/01 05:46:20;;;;;;;6.80;6.10;;;;;;;22.48;34.96;101736.25;5064759;28;20451;-60
2022/05/01 05:48:49;;;;;;;9.90;6.57;;;;;;;22.57;34.66;101742.19;5066065;28;20431;-60
2022/05/01 05:51:16;;;;;;;6.95;6.32;;;;;;;23.54;33.42;101741.34;5070705;28;20480;-59
2022/05/01 05:53:43;;;;;;;7.13;6.43;;;;;;;23.73;33.12;101747.50;5075976;28;20431;-59
2022/05/01 05:56:10;;;;;;;8.15;6.82;;;;;;;24.08;32.60;101741.34;5068570;28;20418;-59
2022/05/01 05:58:37;;;;;;;6.97;6.28;;;;;;;23.93;32.64;101738.25;5069120;28;20483;-59
2022/05/01 06:01:04;;;;;;;7.63;6.90;;;;;;;23.26;33.75;101737.41;5070114;28;20485;-59
2022/05/01 06:03:32;;;;;;;7.63;6.93;;;;;;;23.20;33.92;101746.41;5067440;28;20920;-59
2022/05/01 06:06:01;;;;;;;7.50;6.53;;;;;;;23.71;33.19;101738.78;5063513;28;20472;-60
2022/05/01 06:08:28;;;;;;;6.93;6.32;;;;;;;24.35;31.96;101743.56;5062835;28;20875;-59
2022/05/01 06:10:55;;;;;;;7.03;6.32;;;;;;;24.17;32.10;101744.53;5063509;28;20475;-59
2022/05/01 06:13:22;;;;;;;7.00;6.30;;;;;;;24.81;31.21;101741.84;5079198;28;20925;-60
2022/05/01 06:15:50;;;;;;;7.43;6.32;;;;;;;24.51;31.47;101731.19;5088858;28;20953;-59
2022/05/01 06:18:17;;;;;;;7.97;5.85;;;;;;;24.63;31.78;101732.00;5086105;28;20846;-59
2022/05/01 06:20:44;;;;;;;6.85;6.25;;;;;;;24.57;31.29;101743.81;5084271;28;20446;-59
2022/05/01 06:23:13;;;;;;;7.25;6.30;;;;;;;24.28;31.62;101738.28;5087300;28;20474;-59
2022/05/01 06:25:43;;;;;;;6.30;5.63;;;;;;;24.70;31.46;101726.44;5072371;28;20415;-59
2022/05/01 06:28:10;;;;;;;6.50;5.90;;;;;;;24.81;31.33;101722.88;5070673;28;20928;-59
2022/05/01 06:30:39;;;;;;;7.70;6.27;;;;;;;24.83;31.45;101722.63;5053808;28;20844;-59
2022/05/01 06:33:10;;;;;;;6.85;6.15;;;;;;;25.48;29.92;101741.25;5057349;28;20566;-60
2022/05/01 06:35:37;;;;;;;7.00;6.38;;;;;;;24.59;31.27;101728.94;5052958;28;20422;-61
2022/05/01 06:38:04;;;;;;;6.40;5.80;;;;;;;24.55;31.82;101725.06;5049070;28;20515;-61
2022/05/01 06:40:33;;;;;;;6.50;5.90;;;;;;;24.80;31.35;101723.94;5060688;28;20476;-60
2022/05/01 06:43:01;;;;;;;6.88;5.85;;;;;;;24.58;32.00;101713.75;5054517;28;20424;-59
2022/05/01 06:45:28;;;;;;;6.43;5.82;;;;;;;25.06;31.11;101724.44;5054360;28;20424;-59
2022/05/01 06:47:55;;;;;;;6.85;6.03;;;;;;;24.42;32.30;101723.41;5062844;28;20990;-59
2022/05/01 06:50:22;;;;;;;6.97;5.75;;;;;;;24.45;32.25;101718.56;5054997;28;20540;-60
2022/05/01 06:52:49;;;;;;;6.63;6.00;;;;;;;24.35;32.45;101722.72;5050935;28;20468;-60
2022/05/01 06:55:18;;;;;;;6.90;6.20;;;;;;;24.02;32.67;101715.19;5061463;28;20998;-60
2022/05/01 06:57:47;;;;;;;5.97;5.38;;;;;;;24.11;32.85;101712.94;5057541;28;20419;-61
2022/05/01 07:00:15;;;;;;;7.38;5.90;;;;;;;24.38;32.62;101719.53;5051667;28;20434;-60
2022/05/01 07:02:46;;;;;;;8.35;5.80;;;;;;;24.84;32.34;101711.53;5054615;28;20421;-59
2022/05/01 07:05:13;;;;;;;6.43;5.50;;;;;;;24.34;33.04;101722.94;5054603;28;20937;-60
2022/05/01 07:07:40;;;;;;;5.95;5.35;;;;;;;23.99;32.99;101721.91;5052207;28;20502;-60
2022/05/01 07:10:09;;;;;;;6.35;5.40;;;;;;;23.89;32.79;101713.53;5041596;28;20416;-60
2022/05/01 07:12:36;;;;;;;6.15;5.63;;;;;;;23.74;32.92;101718.56;5056435;28;20524;-59
2022/05/01 07:15:05;;;;;;;5.70;5.10;;;;;;;23.38;33.87;101729.31;5050173;28;20478;-59
2022/05/01 07:17:33;;;;;;;6.13;5.20;;;;;;;23.14;34.02;101717.59;5066355;28;20415;-60
2022/05/01 07:20:00;;;;;;;5.82;5.18;;;;;;;22.80;34.46;101714.47;5057206;28;20422;-60
2022/05/01 07:22:27;;;;;;;6.65;4.80;;;;;;;22.95;34.37;101705.94;5058891;28;20433;-60
2022/05/01 07:24:54;;;;;;;5.53;5.00;;;;;;;22.23;34.92;101722.75;5065007;28;20450;-60
2022/05/01 07:27:21;;;;;;;5.50;5.00;;;;;;;21.92;35.48;101731.78;5050879;28;20428;-60
2022/05/01 07:29:48;;;;;;;5.80;4.70;;;;;;;21.96;35.77;101717.59;5054867;28;20427;-59
2022/05/01 07:32:17;;;;;;;5.23;4.73;;;;;;;21.97;36.20;101718.44;5056973;28;20454;-60
2022/05/01 07:34:44;;;;;;;6.03;4.72;;;;;;;21.74;36.24;101722.56;5055823;28;20533;-62
2022/05/01 07:37:11;;;;;;;5.38;4.40;;;;;;;21.43;36.45;101723.41;5056707;28;20483;-61
2022/05/01 07:39:38;;;;;;;7.90;4.60;;;;;;;21.18;37.13;101717.94;5051199;28;20503;-60
2022/05/01 07:42:06;;;;;;;6.03;4.30;;;;;;;21.11;37.16;101711.78;5057815;28;20418;-61
2022/05/01 07:44:33;;;;;;;4.78;4.25;;;;;;;20.83;37.57;101725.59;5049384;28;20448;-61
2022/05/01 07:47:00;;;;;;;4.30;3.90;;;;;;;20.70;37.53;101715.69;5051673;28;20420;-60
2022/05/01 07:49:29;;;;;;;6.82;4.30;;;;;;;20.50;38.38;101718.41;5050299;28;20408;-62
2022/05/01 07:51:56;;;;;;;5.23;4.03;;;;;;;20.78;37.86;101708.19;5045752;28;20420;-61
2022/05/01 07:54:24;;;;;;;4.57;3.83;;;;;;;20.69;38.27;101708.63;5048377;28;20432;-60
2022/05/01 07:56:51;;;;;;;4.60;3.90;;;;;;;20.61;37.46;101704.31;5046582;28;20433;-61
2022/05/01 07:59:18;;;;;;;5.53;4.05;;;;;;;20.47;38.42;101713.44;5047417;28;20914;-62
2022/05/01 08:01:45;;;;;;;6.28;4.13;;;;;;;20.59;38.42;101692.91;5045190;28;20423;-61
2022/05/01 08:04:29;;;;;;;5.45;3.80;;;;;;;20.67;38.23;101694.53;5048950;28;20457;-61
2022/05/01 08:06:59;;;;;;;4.95;3.70;;;;;;;20.61;37.80;101691.66;5045258;28;20424;-62
2022/05/01 08:09:26;;;;;;;5.38;3.55;;;;;;;20.77;37.55;101693.06;5048685;28;20500;-61
2022/05/01 08:11:54;;;;;;;4.15;3.75;;;;;;;20.90;37.55;101702.94;5053344;28;20480;-62
2022/05/01 08:14:21;;;;;;;4.55;3.40;;;;;;;20.86;36.67;101692.81;5050221;28;20937;-61
2022/05/01 08:16:49;;;;;;;5.55;3.30;;;;;;;20.78;36.99;101701.97;5045481;28;20507;-63
2022/05/01 08:22:04;;;;;;;3.55;2.80;;;;;;;20.80;36.00;101687.25;5050092;28;20466;-62
2022/05/01 08:24:31;;;;;;;3.78;2.90;;;;;;;20.59;37.46;101695.59;5050402;28;20419;-61
2022/05/01 08:27:04;;;;;;;3.53;2.70;;;;;;;20.65;36.80;101694.75;5049767;28;20926;-60
2022/05/01 08:29:32;;;;;;;4.05;3.20;;;;;;;20.65;36.60;101694.75;5050496;28;20419;-60
2022/05/01 08:32:00;;;;;;;4.15;2.90;;;;;;;21.05;36.10;101691.91;5049871;28;20469;-61
2022/05/01 08:34:27;;;;;;;5.50;3.13;;;;;;;20.87;35.52;101686.38;5058983;28;20432;-63
2022/05/01 08:36:54;;;;;;;4.68;3.35;;;;;;;20.92;35.73;101695.50;5056833;28;20882;-61
2022/05/01 08:39:23;;;;;;;5.35;2.90;;;;;;;20.75;34.76;101687.06;5057806;28;20426;-62
2022/05/01 08:41:50;;;;;;;4.40;2.65;;;;;;;20.65;35.38;101694.75;5055698;28;20472;-61
2022/05/01 08:44:25;;;;;;;5.22;3.03;;;;;;;20.63;35.92;101686.06;5047928;28;20422;-62
2022/05/01 08:47:11;;;;;;;5.20;3.40;;;;;;;20.51;35.88;101687.72;5039572;28;20432;-60
2022/05/01 08:49:41;;;;;;;5.50;2.80;;;;;;;20.49;36.43;101682.59;5054394;28;20850;-61
2022/05/01 08:53:58;;;;;;;6.38;3.10;;;;;;;20.41;36.88;101691.69;5065254;28;20462;-61
2022/05/01 08:56:26;;;;;;;3.65;2.88;;;;;;;20.60;36.16;101691.88;5054498;28;20500;-61
2022/05/01 08:58:54;;;;;;;4.18;2.80;;;;;;;20.71;36.26;101688.53;5062181;28;20416;-61
2022/05/01 09:01:22;;;;;;;3.40;3.10;;;;;;;20.60;36.59;101679.22;5053654;28;20544;-60
2022/05/01 09:03:49;;;;;;;3.40;3.10;;;;;;;20.92;35.46;101682.00;5053854;28;20939;-62
2022/05/01 09:06:16;;;;;;;4.32;3.28;;;;;;;21.10;35.59;101683.16;5050496;28;20417;-62
2022/05/01 09:08:44;;;;;;;4.18;3.17;;;;;;;21.32;34.63;101680.94;5050574;28;20512;-62
2022/05/01 09:13:53;;;;;;;4.63;3.00;;;;;;;21.60;34.23;101674.34;5020987;28;20453;-65
2022/05/01 09:16:21;;;;;;;4.40;2.88;;;;;;;21.48;34.57;101682.31;5056336;28;20415;-63
2022/05/01 09:18:49;;;;;;;3.90;2.88;;;;;;;21.34;34.24;101673.47;5056177;28;20507;-62
2022/05/01 09:21:16;;;;;;;4.32;2.83;;;;;;;21.24;34.53;101659.63;5054213;28;20457;-62
2022/05/01 09:23:44;;;;;;;4.28;3.47;;;;;;;21.03;34.29;101669.72;5049521;28;20477;-62
2022/05/01 09:26:13;;;;;;;4.60;3.17;;;;;;;20.90;35.36;101662.50;5058122;28;20412;-63
2022/05/01 09:28:49;;;;;;;4.90;3.60;;;;;;;20.98;35.24;101656.88;5056189;28;20845;-63
2022/05/01 09:31:16;;;;;;;3.85;2.95;;;;;;;20.84;35.61;101657.19;5059980;28;20412;-62
2022/05/01 09:33:43;;;;;;;3.88;2.72;;;;;;;21.03;35.76;101648.16;5062234;28;20493;-64
2022/05/01 09:36:36;;;;;;;4.22;2.88;;;;;;;20.90;36.31;101648.22;5063994;28;20956;-62
2022/05/01 09:39:04;;;;;;;3.63;3.23;;;;;;;21.06;35.72;101646.88;5062801;28;20439;-62
2022/05/01 09:41:32;;;;;;;4.13;3.30;;;;;;;21.23;35.65;101631.00;5063347;28;20929;-62
2022/05/01 09:44:12;;;;;;;3.50;2.63;;;;;;;21.08;36.06;101628.63;5062849;28;20449;-62
2022/05/01 09:46:39;;;;;;;3.78;2.60;;;;;;;21.15;35.77;101630.22;5062135;28;20840;-62
2022/05/01 09:49:09;;;;;;;4.60;2.40;;;;;;;21.47;34.39;101627.53;5060208;28;20821;-63
2022/05/01 09:51:38;;;;;;;4.30;2.42;;;;;;;21.78;33.03;101615.00;5061288;28;20415;-63
2022/05/01 09:54:06;;;;;;;3.90;2.58;;;;;;;21.37;32.76;101627.16;5082974;28;20927;-62
2022/05/01 09:56:49;;;;;;;2.78;2.50;;;;;;;21.48;33.19;101625.66;5083573;28;20415;-63
2022/05/01 09:59:18;;;;;;;2.85;2.25;;;;;;;21.60;33.39;101613.09;5082563;28;20476;-62
2022/05/01 10:02:00;;;;;;;2.75;1.90;;;;;;;21.91;31.83;101612.19;5079936;28;20892;-63
2022/05/01 10:04:27;;;;;;;2.80;2.17;;;;;;;21.67;32.58;101607.66;5059855;28;20498;-63
2022/05/01 10:06:55;;;;;;;4.13;2.00;;;;;;;21.60;32.04;101623.06;5057513;28;20419;-62
2022/05/01 10:09:25;;;;;;;4.97;2.03;;;;;;;21.69;32.02;101592.88;5055853;28;20466;-63
2022/05/01 10:11:56;;;;;;;2.75;1.83;;;;;;;22.07;30.16;101597.25;5052303;28;20817;-62
2022/05/01 10:14:24;;;;;;;2.20;1.93;;;;;;;22.05;30.94;101583.16;5055854;28;20444;-63
2022/05/01 10:16:53;;;;;;;2.43;1.73;;;;;;;22.03;29.98;101579.03;5051520;28;20920;-62
2022/05/01 10:19:20;;;;;;;2.15;1.70;;;;;;;22.14;29.69;101575.56;5054412;28;20456;-62
2022/05/01 10:21:49;;;;;;;3.13;1.85;;;;;;;22.40;28.40;101571.75;5050536;28;20850;-62
2022/05/01 10:24:16;;;;;;;2.20;1.47;;;;;;;22.08;28.72;101571.09;5054365;28;20419;-62
2022/05/01 10:26:52;;;;;;;2.50;1.50;;;;;;;22.10;29.05;101567.09;5066252;28;20500;-63
2022/05/01 10:32:20;;;;;;;3.25;1.70;;;;;;;21.85;29.40;101569.88;5070294;28;20458;-63
2022/05/01 10:33:07;;;;;;;4.85;1.70;;;;;;;21.82;30.18;101569.50;5070666;28;20449;-62
2022/05/01 10:36:02;;;;;;;5.57;1.70;;;;;;;21.66;30.88;101554.72;5065527;28;20419;-60
2022/05/01 10:38:40;;;;;;;3.97;1.87;;;;;;;21.79;31.14;101560.00;5069959;28;20454;-60
2022/05/01 10:41:11;;;;;;;5.10;1.73;;;;;;;21.63;31.33;101552.47;5065813;28;20435;-59
2022/05/01 10:43:39;;;;;;;3.35;1.80;;;;;;;21.47;31.38;101551.19;5065044;28;20417;-58
2022/05/01 10:46:29;;;;;;;2.80;1.80;;;;;;;21.62;31.50;101542.72;5058386;28;20441;-59
2022/05/01 10:49:00;;;;;;;3.92;1.70;;;;;;;21.71;31.33;101544.91;5052131;28;20507;-59
2022/05/01 10:51:46;;;;;;;3.60;1.90;;;;;;;21.76;31.25;101534.25;5064383;28;20453;-58
2022/05/01 10:54:36;;;;;;;2.67;1.85;;;;;;;21.46;30.92;101523.34;5067599;28;20427;-59
2022/05/01 10:57:14;;;;;;;2.83;1.77;;;;;;;21.47;30.57;101522.31;5062837;28;20414;-59
2022/05/01 10:59:47;;;;;;;4.80;1.90;;;;;;;21.62;30.30;101524.66;5057072;28;20474;-60
2022/05/01 11:02:30;;;;;;;2.38;1.50;;;;;;;21.97;29.20;101515.97;5059367;28;20861;-60
2022/05/01 11:04:58;;;;;;;3.42;1.60;;;;;;;21.75;29.19;101532.63;5053281;28;20424;-59
2022/05/01 11:07:26;;;;;;;2.95;1.40;;;;;;;21.75;28.60;101513.75;5065879;28;20423;-59
2022/05/01 11:09:56;;;;;;;3.03;1.40;;;;;;;21.67;28.38;101513.22;5056432;28;20459;-59
2022/05/01 11:12:23;;;;;;;3.97;1.50;;;;;;;21.67;28.65;101502.41;5058830;28;20460;-60
2022/05/01 11:14:52;;;;;;;3.40;1.70;;;;;;;21.98;28.17;101501.41;5057216;28;20424;-60
2022/05/01 11:17:55;;;;;;;2.60;1.50;;;;;;;21.93;28.59;101501.25;5051519;28;20449;-61
2022/05/01 11:20:35;;;;;;;2.70;1.30;;;;;;;22.05;28.84;101496.75;5055605;28;20544;-61
2022/05/01 11:23:29;;;;;;;2.53;1.50;;;;;;;21.97;27.96;101499.78;5052485;28;20988;-60
2022/05/01 11:26:14;;;;;;;3.65;1.50;;;;;;;21.98;27.99;101493.31;5067512;28;20423;-59
2022/05/01 11:28:46;;;;;;;2.10;1.48;;;;;;;22.08;27.99;101490.09;5067019;28;20464;-60
2022/05/01 11:31:46;;;;;;;2.30;1.40;;;;;;;21.85;28.35;101486.22;5066202;28;20443;-59
2022/05/01 11:34:37;;;;;;;2.40;1.30;;;;;;;21.64;27.58;101487.47;5063998;28;20515;-60
2022/05/01 11:37:07;;;;;;;1.65;1.20;;;;;;;21.76;27.17;101479.47;5051228;28;20470;-60
2022/05/01 11:40:20;;;;;;;2.42;1.30;;;;;;;21.95;26.71;101483.00;5060366;28;20412;-60
2022/05/01 11:42:47;;;;;;;2.05;1.20;;;;;;;22.01;27.09;101470.44;5059509;28;20443;-60
2022/05/01 11:45:18;;;;;;;2.55;1.30;;;;;;;22.15;26.90;101464.63;5064011;28;20422;-61
2022/05/01 11:47:50;;;;;;;2.65;1.58;;;;;;;22.21;26.79;101462.06;5069884;28;20426;-61
2022/05/01 11:50:19;;;;;;;1.40;1.20;;;;;;;21.84;27.25;101471.09;5069697;28;20415;-63
2022/05/01 11:52:51;;;;;;;2.50;1.17;;;;;;;21.95;26.66;101454.13;5069550;28;20439;-60
2022/05/01 11:55:20;;;;;;;2.67;1.30;;;;;;;22.03;26.90;101455.66;5069775;28;20502;-60
2022/05/01 12:03:38;;;;;;;4.28;1.35;;;;;;;21.94;26.13;101444.34;4994393;28;20421;-61
2022/05/01 12:06:06;;;;;;;2.65;1.17;;;;;;;22.16;26.40;101449.25;5069430;28;20496;-60
2022/05/01 12:08:34;;;;;;;4.15;1.40;;;;;;;22.18;24.89;101441.75;5069836;28;20418;-60
2022/05/01 12:11:01;;;;;;;1.92;1.23;;;;;;;21.96;25.20;101414.44;5069803;28;20496;-60
2022/05/01 12:13:29;;;;;;;2.22;1.05;;;;;;;21.82;24.70;101445.34;5068263;28;20430;-61
2022/05/01 12:15:56;;;;;;;2.65;1.20;;;;;;;21.76;24.72;101447.09;5068993;28;20506;-61